createdAt,value
2023-04-29T00:01:25.938Z,101499.69
2023-04-29T00:03:54.072Z,101498.91
2023-04-29T00:06:21.726Z,101507.72
2023-04-29T00:08:49.057Z,101509.09
2023-04-29T00:11:16.289Z,101513.25
2023-04-29T00:13:43.367Z,101504.50
2023-04-29T00:16:11.465Z,101507.22
2023-04-29T00:18:38.724Z,101510.75
2023-04-29T00:21:06.118Z,101506.25
2023-04-29T00:23:36.209Z,101509.53
2023-04-29T00:26:03.618Z,101508.69
2023-04-29T00:28:30.724Z,101509.41
2023-04-29T00:30:57.995Z,101512.88
2023-04-29T00:33:25.297Z,101516.06
2023-04-29T00:35:52.504Z,101518.13
2023-04-29T00:38:19.463Z,101529.50
2023-04-29T00:40:46.903Z,101528.66
2023-04-29T00:43:13.884Z,101532.03
2023-04-29T00:45:40.882Z,101526.09
2023-04-29T00:48:08.257Z,101522.59
2023-04-29T00:50:36.796Z,101531.16
2023-04-29T00:53:04.387Z,101528.56
2023-04-29T00:55:32.935Z,101527.59
2023-04-29T00:58:00.748Z,101528.56
2023-04-29T01:00:28.280Z,101530.22
2023-04-29T01:02:57.382Z,101539.06
2023-04-29T01:05:25.157Z,101543.09
2023-04-29T01:08:21.765Z,101543.94
2023-04-29T01:10:53.313Z,101543.91
2023-04-29T01:13:38.123Z,101536.34
2023-04-29T01:16:17.950Z,101537.06
2023-04-29T01:18:54.709Z,101541.81
2023-04-29T01:21:22.881Z,101548.00
2023-04-29T01:23:56.073Z,101545.00
2023-04-29T01:26:24.423Z,101544.91
2023-04-29T01:29:09.159Z,101543.94
2023-04-29T01:32:05.686Z,101539.84
2023-04-29T01:35:18.542Z,101548.44
2023-04-29T01:37:55.953Z,101550.22
2023-04-29T01:40:24.429Z,101551.78
2023-04-29T01:43:03.276Z,101555.97
2023-04-29T01:45:34.289Z,101555.19
2023-04-29T01:48:02.650Z,101555.28
2023-04-29T01:50:30.423Z,101552.66
2023-04-29T01:52:57.555Z,101557.16
2023-04-29T01:55:24.604Z,101555.88
2023-04-29T01:57:52.005Z,101572.00
2023-04-29T02:00:19.152Z,101563.91
2023-04-29T02:02:46.451Z,101563.31
2023-04-29T02:05:13.553Z,101563.13
2023-04-29T02:07:41.986Z,101575.44
2023-04-29T02:10:09.641Z,101571.16
2023-04-29T02:12:36.623Z,101578.69
2023-04-29T02:15:04.089Z,101575.50
2023-04-29T02:17:31.146Z,101573.03
2023-04-29T02:19:58.098Z,101579.66
2023-04-29T02:22:25.074Z,101588.47
2023-04-29T02:24:52.121Z,101590.28
2023-04-29T02:27:19.118Z,101579.06
2023-04-29T02:29:46.090Z,101585.09
2023-04-29T02:32:15.468Z,101593.59
2023-04-29T02:34:42.644Z,101583.03
2023-04-29T02:37:09.595Z,101594.53
2023-04-29T02:39:36.600Z,101600.44
2023-04-29T02:42:03.624Z,101600.63
2023-04-29T02:44:31.465Z,101601.38
2023-04-29T02:46:59.752Z,101607.50
2023-04-29T02:49:27.945Z,101611.94
2023-04-29T02:51:54.916Z,101609.28
2023-04-29T02:54:21.922Z,101609.31
2023-04-29T02:56:48.860Z,101618.00
2023-04-29T02:59:16.026Z,101615.22
2023-04-29T03:01:43.350Z,101620.34
2023-04-29T03:04:10.825Z,101627.75
2023-04-29T03:06:38.173Z,101630.00
2023-04-29T03:09:05.573Z,101630.31
2023-04-29T03:11:32.612Z,101637.97
2023-04-29T03:13:59.677Z,101631.31
2023-04-29T03:16:28.783Z,101628.41
2023-04-29T03:18:55.990Z,101637.59
2023-04-29T03:21:22.995Z,101636.09
2023-04-29T03:23:50.391Z,101638.91
2023-04-29T03:26:17.518Z,101638.06
2023-04-29T03:28:44.621Z,101643.84
2023-04-29T03:31:12.358Z,101646.59
2023-04-29T03:33:39.364Z,101647.59
2023-04-29T03:36:08.552Z,101643.94
2023-04-29T03:38:35.854Z,101627.50
2023-04-29T03:41:03.280Z,101640.56
2023-04-29T03:43:30.409Z,101641.44
2023-04-29T03:45:57.425Z,101648.44
2023-04-29T03:48:24.786Z,101646.69
2023-04-29T03:50:51.895Z,101641.31
2023-04-29T03:53:19.036Z,101646.31
2023-04-29T03:55:53.945Z,101658.78
2023-04-29T03:58:20.927Z,101651.94
2023-04-29T04:00:48.054Z,101648.19
2023-04-29T04:03:15.159Z,101660.59
2023-04-29T04:05:42.223Z,101656.06
2023-04-29T04:08:09.340Z,101662.31
2023-04-29T04:10:37.256Z,101660.47
2023-04-29T04:13:04.234Z,101665.63
2023-04-29T04:15:31.233Z,101662.25
2023-04-29T04:17:58.261Z,101665.63
2023-04-29T04:20:25.470Z,101666.72
2023-04-29T04:22:54.741Z,101673.56
2023-04-29T04:25:21.773Z,101675.25
2023-04-29T04:27:48.793Z,101681.44
2023-04-29T04:30:27.561Z,101694.56
2023-04-29T04:32:54.610Z,101683.09
2023-04-29T04:35:21.650Z,101692.84
2023-04-29T04:37:48.640Z,101689.38
2023-04-29T04:40:20.385Z,101695.38
2023-04-29T04:42:47.315Z,101698.03
2023-04-29T04:45:14.802Z,101703.25
2023-04-29T04:47:42.541Z,101701.91
2023-04-29T04:50:10.048Z,101711.22
2023-04-29T04:52:37.471Z,101712.25
2023-04-29T04:55:04.869Z,101719.75
2023-04-29T04:57:31.844Z,101719.16
2023-04-29T04:59:59.034Z,101731.44
2023-04-29T05:02:26.319Z,101727.03
2023-04-29T05:04:55.081Z,101741.06
2023-04-29T05:07:22.176Z,101737.59
2023-04-29T05:09:49.221Z,101740.25
2023-04-29T05:12:16.393Z,101742.84
2023-04-29T05:14:43.402Z,101743.69
2023-04-29T05:17:11.363Z,101749.88
2023-04-29T05:19:38.327Z,101742.56
2023-04-29T05:22:05.283Z,101745.38
2023-04-29T05:24:32.620Z,101749.03
2023-04-29T05:26:59.591Z,101752.56
2023-04-29T05:29:27.274Z,101754.25
2023-04-29T05:31:54.302Z,101754.34
2023-04-29T05:34:21.373Z,101751.66
2023-04-29T05:36:48.310Z,101758.81
2023-04-29T05:39:15.696Z,101757.84
2023-04-29T05:41:42.685Z,101756.13
2023-04-29T05:44:09.688Z,101767.53
2023-04-29T05:46:36.820Z,101770.25
2023-04-29T05:49:03.906Z,101765.84
2023-04-29T05:51:31.745Z,101771.13
2023-04-29T05:54:00.250Z,101768.50
2023-04-29T05:56:27.302Z,101774.66
2023-04-29T05:58:54.265Z,101774.63
2023-04-29T06:01:21.765Z,101782.59
2023-04-29T06:03:48.954Z,101793.25
2023-04-29T06:06:16.641Z,101795.78
2023-04-29T06:08:43.718Z,101790.63
2023-04-29T06:11:10.688Z,101789.84
2023-04-29T06:13:37.762Z,101801.22
2023-04-29T06:16:05.538Z,101802.22
2023-04-29T06:18:32.567Z,101800.34
2023-04-29T06:20:59.520Z,101811.13
2023-04-29T06:23:26.653Z,101801.41
2023-04-29T06:25:53.642Z,101815.44
2023-04-29T06:28:20.902Z,101816.25
2023-04-29T06:30:47.883Z,101825.38
2023-04-29T06:33:15.022Z,101827.91
2023-04-29T06:35:42.125Z,101832.34
2023-04-29T06:38:09.220Z,101842.91
2023-04-29T06:40:36.302Z,101847.28
2023-04-29T06:43:04.578Z,101843.13
2023-04-29T06:45:31.903Z,101846.59
2023-04-29T06:47:58.927Z,101850.00
2023-04-29T06:50:26.251Z,101850.94
2023-04-29T06:52:53.452Z,101859.00
2023-04-29T06:55:20.993Z,101859.78
2023-04-29T06:57:48.178Z,101849.38
2023-04-29T07:00:16.097Z,101860.97
2023-04-29T07:02:43.301Z,101860.03
2023-04-29T07:05:10.791Z,101859.94
2023-04-29T07:07:37.846Z,101863.41
2023-04-29T07:10:05.591Z,101858.47
2023-04-29T07:12:32.568Z,101875.25
2023-04-29T07:15:00.227Z,101883.19
2023-04-29T07:17:31.493Z,101884.91
2023-04-29T07:19:58.503Z,101887.69
2023-04-29T07:22:26.030Z,101887.09
2023-04-29T07:24:57.078Z,101889.00
2023-04-29T07:27:24.688Z,101899.50
2023-04-29T07:29:51.700Z,101898.75
2023-04-29T07:32:18.775Z,101907.72
2023-04-29T07:34:45.778Z,101900.78
2023-04-29T07:37:12.906Z,101899.78
2023-04-29T07:39:39.940Z,101901.84
2023-04-29T07:42:06.916Z,101912.19
2023-04-29T07:44:33.889Z,101914.22
2023-04-29T07:47:00.990Z,101908.06
2023-04-29T07:49:28.084Z,101908.25
2023-04-29T07:51:55.073Z,101905.00
2023-04-29T07:54:22.464Z,101899.97
2023-04-29T07:56:49.798Z,101893.91
2023-04-29T07:59:16.925Z,101898.47
2023-04-29T08:01:44.040Z,101910.63
2023-04-29T08:04:11.200Z,101909.34
2023-04-29T08:06:38.388Z,101910.56
2023-04-29T08:09:05.324Z,101905.38
2023-04-29T08:11:32.334Z,101910.88
2023-04-29T08:14:00.254Z,101901.28
2023-04-29T08:16:28.049Z,101895.38
2023-04-29T08:18:55.010Z,101907.56
2023-04-29T08:21:22.119Z,101908.06
2023-04-29T08:23:49.111Z,101904.69
2023-04-29T08:26:17.721Z,101913.69
2023-04-29T08:28:45.050Z,101913.00
2023-04-29T08:31:21.892Z,101914.69
2023-04-29T08:33:49.338Z,101916.28
2023-04-29T08:36:16.342Z,101909.03
2023-04-29T08:38:43.466Z,101913.91
2023-04-29T08:41:10.671Z,101914.91
2023-04-29T08:43:37.962Z,101917.06
2023-04-29T08:46:05.278Z,101916.34
2023-04-29T08:48:32.913Z,101913.97
2023-04-29T08:51:01.746Z,101914.13
2023-04-29T08:53:29.444Z,101916.78
2023-04-29T08:56:01.325Z,101917.16
2023-04-29T08:58:29.829Z,101919.00
2023-04-29T09:00:57.175Z,101916.16
2023-04-29T09:04:01.469Z,101920.88
2023-04-29T09:06:28.619Z,101912.28
2023-04-29T09:08:56.046Z,101924.69
2023-04-29T09:11:23.344Z,101917.91
2023-04-29T09:13:50.555Z,101916.97
2023-04-29T09:16:17.534Z,101936.31
2023-04-29T09:18:52.316Z,101931.06
2023-04-29T09:21:24.496Z,101945.88
2023-04-29T09:24:00.076Z,101944.97
2023-04-29T09:26:28.220Z,101936.00
2023-04-29T09:29:18.449Z,101930.75
2023-04-29T09:31:47.075Z,101938.03
2023-04-29T09:34:14.576Z,101937.41
2023-04-29T09:36:51.176Z,101926.53
2023-04-29T09:39:22.117Z,101941.88
2023-04-29T09:41:54.855Z,101940.41
2023-04-29T09:44:29.997Z,101943.97
2023-04-29T09:47:09.539Z,101946.38
2023-04-29T09:49:38.652Z,101945.44
2023-04-29T09:52:08.849Z,101937.25
2023-04-29T09:54:38.598Z,101947.81
2023-04-29T09:57:07.431Z,101951.28
2023-04-29T09:59:37.677Z,101939.88
2023-04-29T10:02:15.724Z,101946.25
2023-04-29T10:04:45.637Z,101949.13
2023-04-29T10:07:17.774Z,101944.84
2023-04-29T10:09:49.662Z,101944.34
2023-04-29T10:12:19.949Z,101941.69
2023-04-29T10:15:02.537Z,101943.28
2023-04-29T10:17:49.583Z,101944.44
2023-04-29T10:20:24.492Z,101945.28
2023-04-29T10:22:54.928Z,101943.97
2023-04-29T10:25:24.587Z,101950.19
2023-04-29T10:27:54.957Z,101949.94
2023-04-29T10:30:22.796Z,101950.19
2023-04-29T10:32:52.499Z,101946.41
2023-04-29T10:35:25.613Z,101937.63
2023-04-29T10:37:56.176Z,101948.34
2023-04-29T10:40:48.956Z,101948.72
2023-04-29T10:43:16.508Z,101955.84
2023-04-29T10:45:43.572Z,101950.97
2023-04-29T10:48:13.261Z,101956.25
2023-04-29T10:50:45.324Z,101961.34
2023-04-29T10:53:12.667Z,101958.53
2023-04-29T10:55:40.200Z,101957.78
2023-04-29T10:58:52.452Z,101960.19
2023-04-29T11:01:39.415Z,101956.63
2023-04-29T11:04:06.491Z,101954.94
2023-04-29T11:06:36.477Z,101955.16
2023-04-29T11:09:34.873Z,101959.63
2023-04-29T11:12:06.097Z,101948.09
2023-04-29T11:14:40.452Z,101950.13
2023-04-29T11:17:14.199Z,101950.97
2023-04-29T11:19:51.178Z,101949.38
2023-04-29T11:22:18.270Z,101948.44
2023-04-29T11:25:02.040Z,101960.03
2023-04-29T11:27:35.740Z,101954.50
2023-04-29T11:30:06.910Z,101952.88
2023-04-29T11:32:45.933Z,101952.13
2023-04-29T11:35:13.213Z,101952.00
2023-04-29T11:37:42.649Z,101950.38
2023-04-29T11:40:11.751Z,101948.91
2023-04-29T11:42:45.632Z,101955.69
2023-04-29T11:45:13.243Z,101956.03
2023-04-29T11:47:46.144Z,101958.03
2023-04-29T11:50:16.702Z,101953.41
2023-04-29T11:52:44.853Z,101944.44
2023-04-29T11:55:12.577Z,101953.47
2023-04-29T11:57:40.652Z,101943.59
2023-04-29T12:00:13.023Z,101950.84
2023-04-29T12:02:44.963Z,101943.13
2023-04-29T12:05:13.545Z,101950.16
2023-04-29T12:07:41.226Z,101950.34
2023-04-29T12:10:11.029Z,101942.31
2023-04-29T12:12:44.023Z,101942.31
2023-04-29T12:15:12.671Z,101944.00
2023-04-29T12:17:40.962Z,101944.91
2023-04-29T12:20:12.752Z,101939.03
2023-04-29T12:22:41.558Z,101949.59
2023-04-29T12:25:09.332Z,101948.50
2023-04-29T12:27:39.535Z,101946.09
2023-04-29T12:30:10.662Z,101954.03
2023-04-29T12:32:38.808Z,101944.31
2023-04-29T12:35:06.266Z,101937.34
2023-04-29T12:37:35.326Z,101950.91
2023-04-29T12:40:02.657Z,101952.13
2023-04-29T12:42:34.340Z,101958.72
2023-04-29T12:45:01.791Z,101952.59
2023-04-29T12:47:37.268Z,101949.22
2023-04-29T12:50:07.203Z,101952.00
2023-04-29T12:52:36.630Z,101951.88
2023-04-29T12:55:04.914Z,101950.25
2023-04-29T12:57:32.208Z,101951.00
2023-04-29T12:59:59.463Z,101946.50
2023-04-29T13:02:26.673Z,101946.75
2023-04-29T13:04:54.040Z,101950.34
2023-04-29T13:07:21.359Z,101952.09
2023-04-29T13:09:48.439Z,101953.41
2023-04-29T13:12:15.484Z,101946.59
2023-04-29T13:14:43.876Z,101948.56
2023-04-29T13:17:11.209Z,101954.75
2023-04-29T13:19:50.353Z,101948.56
2023-04-29T13:22:19.075Z,101948.56
2023-04-29T13:24:46.811Z,101945.97
2023-04-29T13:27:13.977Z,101945.16
2023-04-29T13:29:41.061Z,101943.38
2023-04-29T13:32:09.166Z,101955.00
2023-04-29T13:34:36.522Z,101950.41
2023-04-29T13:37:03.636Z,101953.13
2023-04-29T13:39:30.722Z,101946.91
2023-04-29T13:41:59.705Z,101943.44
2023-04-29T13:44:34.110Z,101953.28
2023-04-29T13:47:06.883Z,101953.31
2023-04-29T13:50:09.867Z,101956.81
2023-04-29T13:55:14.835Z,101969.84
2023-04-29T14:00:31.570Z,101959.50
2023-04-29T14:05:27.909Z,101956.81
2023-04-29T14:07:55.012Z,101957.75
2023-04-29T14:10:22.142Z,101963.94
2023-04-29T14:12:49.399Z,101958.59
2023-04-29T14:15:16.739Z,101959.47
2023-04-29T14:17:43.741Z,101965.69
2023-04-29T14:20:11.439Z,101961.38
2023-04-29T14:22:38.562Z,101962.25
2023-04-29T14:25:06.509Z,101959.50
2023-04-29T14:27:34.791Z,101962.91
2023-04-29T14:30:02.194Z,101962.25
2023-04-29T14:32:29.238Z,101963.13
2023-04-29T14:34:56.211Z,101956.03
2023-04-29T14:37:23.166Z,101963.16
2023-04-29T14:39:50.124Z,101966.63
2023-04-29T14:42:18.676Z,101963.06
2023-04-29T14:44:45.628Z,101955.81
2023-04-29T14:47:12.615Z,101953.28
2023-04-29T14:49:39.747Z,101968.38
2023-04-29T14:52:06.668Z,101964.91
2023-04-29T14:54:33.668Z,101970.13
2023-04-29T14:57:00.602Z,101964.81
2023-04-29T14:59:30.064Z,101966.59
2023-04-29T15:01:57.762Z,101967.50
2023-04-29T15:04:24.815Z,101971.06
2023-04-29T15:06:52.017Z,101971.94
2023-04-29T15:09:19.279Z,101959.47
2023-04-29T15:11:46.228Z,101968.38
2023-04-29T15:14:13.173Z,101963.06
2023-04-29T15:16:40.123Z,101963.00
2023-04-29T15:19:07.168Z,101972.00
2023-04-29T15:21:34.410Z,101963.13
2023-04-29T15:24:03.030Z,101969.38
2023-04-29T15:26:30.067Z,101971.22
2023-04-29T15:28:57.055Z,101970.34
2023-04-29T15:31:25.476Z,101965.00
2023-04-29T15:33:55.157Z,101965.91
2023-04-29T15:36:35.291Z,101969.53
2023-04-29T15:39:02.306Z,101973.81
2023-04-29T15:41:29.259Z,101973.06
2023-04-29T15:43:57.253Z,101961.53
2023-04-29T15:46:24.410Z,101969.53
2023-04-29T15:48:51.568Z,101971.31
2023-04-29T15:51:18.827Z,101964.19
2023-04-29T15:53:45.905Z,101968.63
2023-04-29T15:56:13.570Z,101967.66
2023-04-29T15:58:40.709Z,101971.25
2023-04-29T16:01:07.769Z,101972.19
2023-04-29T16:03:34.905Z,101978.38
2023-04-29T16:06:02.137Z,101976.63
2023-04-29T16:08:29.181Z,101974.84
2023-04-29T16:10:56.156Z,101968.63
2023-04-29T16:13:24.134Z,101972.09
2023-04-29T16:15:51.223Z,101965.94
2023-04-29T16:18:19.253Z,101972.09
2023-04-29T16:20:46.353Z,101966.84
2023-04-29T16:23:13.422Z,101969.44
2023-04-29T16:25:41.903Z,101974.88
2023-04-29T16:28:09.204Z,101973.97
2023-04-29T16:30:36.549Z,101980.19
2023-04-29T16:33:03.676Z,101972.16
2023-04-29T16:35:31.073Z,101980.09
2023-04-29T16:37:58.580Z,101980.81
2023-04-29T16:40:25.589Z,101980.91
2023-04-29T16:42:53.508Z,101980.06
2023-04-29T16:45:23.188Z,101975.63
2023-04-29T16:47:51.299Z,101973.69
2023-04-29T16:50:18.838Z,101972.78
2023-04-29T16:52:45.947Z,101981.75
2023-04-29T16:55:13.403Z,101976.34
2023-04-29T16:57:40.437Z,101981.50
2023-04-29T17:00:14.432Z,101975.38
2023-04-29T17:02:43.047Z,101968.34
2023-04-29T17:05:11.039Z,101964.81
2023-04-29T17:07:39.521Z,101980.53
2023-04-29T17:10:08.261Z,101967.34
2023-04-29T17:12:35.583Z,101968.34
2023-04-29T17:15:02.839Z,101977.22
2023-04-29T17:17:30.193Z,101971.91
2023-04-29T17:19:57.737Z,101970.22
2023-04-29T17:22:24.733Z,101969.28
2023-04-29T17:24:51.732Z,101979.16
2023-04-29T17:27:18.727Z,101978.31
2023-04-29T17:29:46.165Z,101975.66
2023-04-29T17:32:15.501Z,101980.97
2023-04-29T17:34:42.575Z,101975.66
2023-04-29T17:37:10.045Z,101983.63
2023-04-29T17:39:37.031Z,101991.56
2023-04-29T17:42:04.102Z,101982.66
2023-04-29T17:44:31.103Z,101977.31
2023-04-29T17:46:58.225Z,101980.00
2023-04-29T17:49:25.326Z,101974.69
2023-04-29T17:51:52.559Z,101972.81
2023-04-29T17:54:19.579Z,101978.97
2023-04-29T17:56:46.554Z,101982.41
2023-04-29T17:59:13.561Z,101980.53
2023-04-29T18:01:40.658Z,101976.84
2023-04-29T18:04:07.802Z,101981.25
2023-04-29T18:06:35.020Z,101987.31
2023-04-29T18:09:02.063Z,101981.91
2023-04-29T18:11:29.378Z,101990.63
2023-04-29T18:13:56.437Z,101988.72
2023-04-29T18:16:23.495Z,101983.31
2023-04-29T18:18:56.554Z,101993.81
2023-04-29T18:21:25.997Z,101992.97
2023-04-29T18:23:53.416Z,101991.97
2023-04-29T18:26:20.922Z,101990.97
2023-04-29T18:28:48.678Z,101995.25
2023-04-29T18:31:17.347Z,101996.09
2023-04-29T18:33:45.203Z,101995.03
2023-04-29T18:36:14.193Z,102002.88
2023-04-29T18:38:41.431Z,102009.00
2023-04-29T18:41:08.704Z,102009.72
2023-04-29T18:43:36.635Z,102018.44
2023-04-29T18:46:03.879Z,102012.03
2023-04-29T18:48:31.456Z,102024.16
2023-04-29T18:51:00.467Z,102024.91
2023-04-29T18:53:27.517Z,102030.00
2023-04-29T18:55:54.685Z,102031.59
2023-04-29T18:58:22.276Z,102034.88
2023-04-29T19:00:49.587Z,102039.19
2023-04-29T19:03:16.528Z,102043.50
2023-04-29T19:05:43.924Z,102042.66
2023-04-29T19:08:11.102Z,102042.34
2023-04-29T19:10:38.127Z,102049.25
2023-04-29T19:13:05.432Z,102044.44
2023-04-29T19:15:32.568Z,102057.53
2023-04-29T19:17:59.573Z,102067.00
2023-04-29T19:20:27.042Z,102073.91
2023-04-29T19:22:54.046Z,102066.75
2023-04-29T19:25:21.746Z,102071.16
2023-04-29T19:27:49.178Z,102074.50
2023-04-29T19:30:16.635Z,102075.88
2023-04-29T19:32:46.262Z,102089.88
2023-04-29T19:35:13.366Z,102094.22
2023-04-29T19:37:40.888Z,102089.56
2023-04-29T19:40:10.885Z,102092.25
2023-04-29T19:42:39.419Z,102089.16
2023-04-29T19:45:08.132Z,102093.56
2023-04-29T19:47:36.214Z,102094.94
2023-04-29T19:50:05.352Z,102101.16
2023-04-29T19:52:32.570Z,102099.38
2023-04-29T19:54:59.568Z,102098.47
2023-04-29T19:57:28.357Z,102102.72
2023-04-29T19:59:55.803Z,102090.22
2023-04-29T20:02:23.099Z,102102.72
2023-04-29T20:04:50.160Z,102103.47
2023-04-29T20:07:18.244Z,102105.88
2023-04-29T20:09:45.855Z,102109.72
2023-04-29T20:12:12.953Z,102113.13
2023-04-29T20:14:40.009Z,102106.53
2023-04-29T20:17:07.778Z,102119.41
2023-04-29T20:19:34.878Z,102126.47
2023-04-29T20:22:01.958Z,102138.75
2023-04-29T20:24:29.089Z,102131.47
2023-04-29T20:26:56.357Z,102129.69
2023-04-29T20:29:23.408Z,102137.31
2023-04-29T20:31:50.739Z,102136.06
2023-04-29T20:34:17.792Z,102143.75
2023-04-29T20:36:44.933Z,102147.75
2023-04-29T20:39:11.909Z,102152.75
2023-04-29T20:41:38.990Z,102141.50
2023-04-29T20:44:06.075Z,102144.66
2023-04-29T20:46:33.092Z,102140.91
2023-04-29T20:49:00.060Z,102148.44
2023-04-29T20:51:27.649Z,102156.25
2023-04-29T20:53:54.768Z,102155.34
2023-04-29T20:56:21.742Z,102153.63
2023-04-29T20:58:48.849Z,102156.09
2023-04-29T21:01:15.931Z,102166.38
2023-04-29T21:03:43.041Z,102167.81
2023-04-29T21:06:10.154Z,102161.66
2023-04-29T21:08:37.277Z,102169.41
2023-04-29T21:11:05.366Z,102164.72
2023-04-29T21:13:32.384Z,102164.38
2023-04-29T21:15:59.401Z,102171.19
2023-04-29T21:18:26.445Z,102171.97
2023-04-29T21:20:53.537Z,102171.94
2023-04-29T21:23:20.597Z,102165.38
2023-04-29T21:25:47.567Z,102176.47
2023-04-29T21:28:16.788Z,102173.41
2023-04-29T21:30:44.062Z,102179.44
2023-04-29T21:33:11.058Z,102179.09
2023-04-29T21:35:41.978Z,102183.16
2023-04-29T21:38:09.264Z,102188.31
2023-04-29T21:40:41.133Z,102186.13
2023-04-29T21:43:10.001Z,102191.94
2023-04-29T21:45:37.716Z,102190.28
2023-04-29T21:48:18.373Z,102198.72
2023-04-29T21:50:46.131Z,102189.16
2023-04-29T21:53:16.151Z,102195.88
2023-04-29T21:55:43.834Z,102202.75
2023-04-29T21:58:11.370Z,102197.38
2023-04-29T22:00:41.000Z,102200.19
2023-04-29T22:03:09.486Z,102198.50
2023-04-29T22:05:37.271Z,102202.03
2023-04-29T22:08:07.482Z,102203.44
2023-04-29T22:10:34.734Z,102204.00
2023-04-29T22:13:01.810Z,102194.81
2023-04-29T22:15:29.618Z,102201.56
2023-04-29T22:17:57.343Z,102205.16
2023-04-29T22:20:25.343Z,102205.22
2023-04-29T22:22:52.521Z,102211.25
2023-04-29T22:25:21.659Z,102208.50
2023-04-29T22:27:49.758Z,102213.47
2023-04-29T22:30:17.894Z,102212.66
2023-04-29T22:32:45.075Z,102212.47
2023-04-29T22:35:12.213Z,102215.88
2023-04-29T22:37:39.243Z,102207.75
2023-04-29T22:40:07.653Z,102212.09
2023-04-29T22:42:34.712Z,102212.03
2023-04-29T22:45:01.708Z,102216.22
2023-04-29T22:47:29.016Z,102209.72
2023-04-29T22:49:56.349Z,102211.25
2023-04-29T22:52:23.550Z,102214.59
2023-04-29T22:54:50.639Z,102210.19
2023-04-29T22:57:17.569Z,102214.59
2023-04-29T22:59:44.528Z,102214.66
2023-04-29T23:02:11.961Z,102217.28
2023-04-29T23:04:39.011Z,102217.28
2023-04-29T23:07:06.069Z,102216.25
2023-04-29T23:09:33.175Z,102214.28
2023-04-29T23:12:00.136Z,102219.59
2023-04-29T23:14:27.097Z,102214.03
2023-04-29T23:16:54.043Z,102213.91
2023-04-29T23:19:21.061Z,102219.16
2023-04-29T23:21:48.033Z,102224.28
2023-04-29T23:24:15.013Z,102226.84
2023-04-29T23:26:41.955Z,102235.69
2023-04-29T23:29:08.966Z,102228.31
2023-04-29T23:31:36.083Z,102227.44
2023-04-29T23:34:03.089Z,102234.28
2023-04-29T23:36:30.069Z,102239.22
2023-04-29T23:38:57.046Z,102233.69
2023-04-29T23:41:24.194Z,102231.63
2023-04-29T23:43:51.168Z,102238.25
2023-04-29T23:46:18.442Z,102239.72
2023-04-29T23:48:45.456Z,102233.06
2023-04-29T23:51:12.523Z,102238.16
2023-04-29T23:53:40.216Z,102240.72
2023-04-29T23:56:07.630Z,102232.84
2023-04-29T23:58:34.613Z,102235.47
